Time;durP1;ratioP1;P1;durP2;ratioP2;P2;SDS_P1;SDS_P2;PMS_P1;PMS_P2;Temp;Humidity;BMP_temperature;BMP_pressure;BME280_temperature;BME280_humidity;BME280_pressure;Samples;Min_cycle;Max_cycle;Signal;HPM_P1;HPM_P2
2022/12/08 00:01:38;;;;;;;;;45.75;38.75;;;;;7.08;68.41;101146.09;5098341;27;45698;-54
2022/12/08 00:04:04;;;;;;;;;53.25;40.50;;;;;7.07;68.16;101143.53;5098571;27;45356;-53
2022/12/08 00:09:32;;;;;;;;;45.00;40.00;;;;;6.99;69.04;101133.50;5098568;27;45334;-53
2022/12/08 00:12:03;;;;;;;;;49.75;39.75;;;;;6.98;68.57;101129.19;5098257;27;46916;-54
2022/12/08 00:14:40;;;;;;;;;50.00;40.50;;;;;6.99;67.98;101133.50;5097928;27;45520;-55
2022/12/08 00:17:08;;;;;;;;;56.00;42.25;;;;;6.99;68.16;101123.81;5098254;27;45298;-54
2022/12/08 00:19:33;;;;;;;;;27.00;18.75;;;;;6.98;69.01;101122.09;5098343;27;45471;-52
2022/12/08 00:21:59;;;;;;;;;52.50;39.75;;;;;6.98;68.76;101116.81;5098217;27;46206;-54
2022/12/08 00:24:30;;;;;;;;;45.50;40.00;;;;;6.93;69.13;101116.31;5098126;27;45451;-55
2022/12/08 00:26:55;;;;;;;;;54.00;42.00;;;;;6.92;69.13;101119.09;5098235;27;45577;-54
2022/12/08 00:29:21;;;;;;;;;65.75;45.75;;;;;6.88;68.51;101104.41;5098150;27;45528;-49
2022/12/08 00:31:47;;;;;;;;;54.75;43.00;;;;;6.83;69.31;101098.63;5098074;27;46861;-54
2022/12/08 00:34:13;;;;;;;;;57.25;42.00;;;;;6.87;69.14;101107.97;5097922;27;45310;-55
2022/12/08 00:36:38;;;;;;;;;65.25;47.50;;;;;6.83;69.10;101101.25;5098110;27;45426;-54
2022/12/08 00:39:04;;;;;;;;;65.50;49.00;;;;;6.83;69.97;101104.75;5098300;27;45416;-53
2022/12/08 00:44:15;;;;;;;;;65.75;51.25;;;;;6.83;69.95;101098.63;5097640;27;45382;-56
2022/12/08 00:46:41;;;;;;;;;65.50;50.00;;;;;6.82;70.06;101091.63;5097892;27;45347;-55
2022/12/08 00:49:06;;;;;;;;;67.00;49.50;;;;;6.82;70.33;101094.25;5097768;27;45386;-55
2022/12/08 00:51:32;;;;;;;;;71.50;49.75;;;;;6.80;70.36;101093.53;5097471;27;46336;-53
2022/12/08 00:53:58;;;;;;;;;65.50;49.50;;;;;6.84;70.21;101087.06;5097497;27;45341;-53
2022/12/08 00:56:24;;;;;;;;;64.00;50.00;;;;;6.83;69.89;101088.03;5097676;27;45410;-54
2022/12/08 00:58:50;;;;;;;;;79.25;54.50;;;;;6.78;70.38;101084.88;5097723;27;45456;-52
2022/12/08 01:01:15;;;;;;;;;73.00;50.50;;;;;6.75;70.77;101081.50;5097408;27;45345;-49
2022/12/08 01:03:41;;;;;;;;;72.00;52.75;;;;;6.74;70.50;101085.13;5097583;27;45387;-55
2022/12/08 01:06:08;;;;;;;;;74.75;54.00;;;;;6.71;70.42;101073.91;5097678;27;45381;-54
2022/12/08 01:08:35;;;;;;;;;77.50;56.25;;;;;6.71;71.53;101074.75;5097814;27;45410;-53
2022/12/08 01:11:06;;;;;;;;;69.25;53.25;;;;;6.68;71.43;101068.84;5097474;27;46246;-54
2022/12/08 01:13:31;;;;;;;;;74.25;55.00;;;;;6.68;70.87;101074.97;5097330;27;45350;-51
2022/12/08 01:15:57;;;;;;;;;75.75;55.75;;;;;6.64;70.98;101064.75;5097503;27;45390;-55
2022/12/08 01:18:22;;;;;;;;;74.75;55.50;;;;;6.63;71.14;101071.00;5097815;27;45336;-59
2022/12/08 01:20:47;;;;;;;;;73.50;52.75;;;;;6.61;71.20;101065.81;5097075;27;46289;-55
2022/12/08 01:23:13;;;;;;;;;74.00;53.25;;;;;6.58;71.83;101060.75;5097248;27;45384;-55
2022/12/08 01:25:38;;;;;;;;;77.00;56.25;;;;;6.60;71.37;101066.78;5097293;27;45370;-54
2022/12/08 01:28:03;;;;;;;;;71.00;53.00;;;;;6.57;71.62;101064.34;5097489;27;45394;-53
2022/12/08 01:30:29;;;;;;;;;67.00;48.50;;;;;6.17;71.65;101001.22;5097007;27;46179;-53
2022/12/08 01:32:55;;;;;;;;;71.75;53.00;;;;;6.51;71.51;101059.53;5096954;27;45345;-55
2022/12/08 01:35:21;;;;;;;;;78.75;57.25;;;;;6.48;71.95;101049.16;5097175;27;45380;-55
2022/12/08 01:37:46;;;;;;;;;74.00;53.75;;;;;6.44;71.56;101050.34;5097500;27;45347;-56
2022/12/08 01:40:11;;;;;;;;;75.25;55.00;;;;;6.45;72.01;101052.91;5096856;27;47202;-55
2022/12/08 01:42:37;;;;;;;;;72.75;53.00;;;;;6.46;71.16;101053.72;5096965;27;45321;-55
2022/12/08 01:45:12;;;;;;;;;74.25;57.00;;;;;6.47;70.95;101045.69;5097050;27;45315;-55
2022/12/08 01:47:42;;;;;;;;;70.25;51.00;;;;;6.46;71.32;101045.81;5096955;27;45417;-54
2022/12/08 01:50:12;;;;;;;;;63.25;51.00;;;;;6.44;71.31;101047.69;5097194;27;45904;-52
2022/12/08 01:52:48;;;;;;;;;69.75;50.25;;;;;6.47;71.63;101056.25;5099314;27;45249;-52
2022/12/08 01:55:28;;;;;;;;;71.00;50.50;;;;;6.46;71.39;101049.28;5099148;27;45401;-55
2022/12/08 01:58:02;;;;;;;;;72.50;51.75;;;;;6.45;71.66;101047.59;5100803;27;45448;-53
2022/12/08 02:00:27;;;;;;;;;68.50;53.75;;;;;6.47;71.36;101050.13;5100363;27;46358;-52
2022/12/08 02:02:59;;;;;;;;;62.25;49.25;;;;;6.48;71.08;101047.34;5100236;27;45339;-53
2022/12/08 02:05:31;;;;;;;;;62.25;50.25;;;;;6.53;71.47;101048.81;5100402;27;45235;-54
2022/12/08 02:07:59;;;;;;;;;74.75;51.25;;;;;6.54;70.73;101039.97;5100611;27;45381;-54
2022/12/08 02:10:28;;;;;;;;;67.75;49.00;;;;;6.48;71.19;101034.16;5098824;27;46277;-54
2022/12/08 02:12:55;;;;;;;;;62.75;45.00;;;;;6.52;70.95;101037.41;5100181;27;45348;-52
2022/12/08 02:15:30;;;;;;;;;57.00;44.75;;;;;6.53;70.96;101035.59;5098850;27;45419;-53
2022/12/08 02:18:16;;;;;;;;;60.25;43.00;;;;;6.54;70.58;101035.50;5115987;27;45505;-51
2022/12/08 02:21:26;;;;;;;;;67.25;47.75;;;;;6.52;70.99;101037.41;5085594;27;46068;-53
2022/12/08 02:24:02;;;;;;;;;61.50;45.25;;;;;6.54;70.30;101040.81;5017431;28;45417;-51
2022/12/08 02:26:46;;;;;;;;;52.50;44.50;;;;;6.55;70.99;101047.75;5017401;28;45499;-53
2022/12/08 02:30:05;;;;;;;;;63.00;46.00;;;;;6.58;70.66;101039.63;5017577;28;45406;-54
2022/12/08 02:32:39;;;;;;;;;58.00;45.00;;;;;6.59;70.46;101038.66;4957784;28;46658;-54
2022/12/08 02:35:19;;;;;;;;;49.00;41.75;;;;;6.44;70.50;101008.06;4957740;28;45590;-54
2022/12/08 02:38:03;;;;;;;;;53.75;42.50;;;;;6.59;70.26;101033.38;4957833;28;45359;-54
2022/12/08 02:40:49;;;;;;;;;64.25;45.50;;;;;6.59;70.57;101027.25;4957918;28;45394;-54
2022/12/08 02:43:29;;;;;;;;;60.50;43.50;;;;;6.57;70.02;101024.69;4957721;28;45478;-55
2022/12/08 02:46:01;;;;;;;;;59.00;44.00;;;;;6.55;70.26;101025.78;4957391;28;45560;-54
2022/12/08 02:48:28;;;;;;;;;61.75;43.25;;;;;6.54;70.64;101018.81;4957430;28;45398;-52
2022/12/08 02:50:53;;;;;;;;;54.00;44.00;;;;;6.53;70.49;101014.47;4957744;28;45468;-52
2022/12/08 02:53:18;;;;;;;;;64.00;46.00;;;;;6.48;70.66;100999.78;4957186;28;46235;-54
2022/12/08 02:55:46;;;;;;;;;49.00;42.00;;;;;6.54;70.53;101013.53;4957161;28;45541;-54
2022/12/08 02:58:35;;;;;;;;;55.75;45.25;;;;;6.53;71.04;101001.25;4957660;28;45462;-51
2022/12/08 03:01:19;;;;;;;;;48.50;41.50;;;;;6.50;70.65;101002.34;5011089;28;45421;-55
2022/12/08 03:04:04;;;;;;;;;54.75;41.50;;;;;6.52;70.34;101000.41;5081162;27;46364;-54
2022/12/08 03:06:40;;;;;;;;;61.75;45.75;;;;;6.53;69.53;100999.47;5099420;27;45493;-53
2022/12/08 03:09:30;;;;;;;;;64.75;45.25;;;;;6.56;70.02;100993.94;5099406;27;45148;-53
2022/12/08 03:12:05;;;;;;;;;63.00;44.25;;;;;6.60;70.23;100997.19;5099528;27;45290;-54
2022/12/08 03:14:33;;;;;;;;;55.25;41.00;;;;;6.60;70.18;100994.56;5098965;27;45837;-53
2022/12/08 03:16:59;;;;;;;;;49.25;39.50;;;;;6.61;70.08;100994.44;5099114;27;45384;-50
2022/12/08 03:19:31;;;;;;;;;49.25;40.00;;;;;6.63;69.76;100989.06;5099348;27;45412;-53
2022/12/08 03:22:02;;;;;;;;;59.75;43.50;;;;;6.64;69.40;100981.00;5097825;27;45348;-52
2022/12/08 03:24:31;;;;;;;;;57.50;43.75;;;;;6.65;69.97;100977.38;5099044;27;46179;-54
2022/12/08 03:27:11;;;;;;;;;58.50;43.75;;;;;6.57;69.60;100957.78;5099011;27;45441;-55
2022/12/08 03:29:37;;;;;;;;;52.75;41.75;;;;;6.31;68.95;100912.19;5097971;27;45425;-53
2022/12/08 03:32:17;;;;;;;;;44.75;38.00;;;;;6.66;69.14;100975.63;5099189;27;45461;-52
2022/12/08 03:34:47;;;;;;;;;54.50;37.25;;;;;6.66;69.24;100965.03;5099080;27;46297;-52
2022/12/08 03:37:12;;;;;;;;;55.25;41.75;;;;;6.66;68.85;100971.16;5099193;27;45444;-53
2022/12/08 03:39:38;;;;;;;;;61.50;41.00;;;;;6.64;69.65;100959.84;5099154;27;45255;-54
2022/12/08 03:42:03;;;;;;;;;49.50;41.25;;;;;6.65;68.76;100961.53;5099525;27;46099;-55
2022/12/08 03:44:28;;;;;;;;;51.50;41.00;;;;;6.65;68.86;100950.94;5098919;27;45413;-57
2022/12/08 03:46:54;;;;;;;;;48.50;39.75;;;;;6.63;68.71;100949.41;5099111;27;45350;-55
2022/12/08 03:49:19;;;;;;;;;48.75;39.50;;;;;6.60;68.97;100947.81;5098880;27;45830;-53
2022/12/08 03:51:44;;;;;;;;;51.25;42.75;;;;;6.59;68.52;100946.13;5098969;27;45246;-54
2022/12/08 03:54:10;;;;;;;;;33.50;29.25;;;;;6.50;68.51;100931.81;5098733;27;45394;-54
2022/12/08 03:56:37;;;;;;;;;53.00;37.75;;;;;6.58;68.84;100940.97;5098701;27;45302;-52
2022/12/08 03:59:03;;;;;;;;;53.25;37.25;;;;;6.56;68.55;100938.44;5098822;27;45223;-55
2022/12/08 04:01:29;;;;;;;;;51.50;42.25;;;;;6.56;68.24;100938.44;5098731;27;45173;-54
2022/12/08 04:03:54;;;;;;;;;50.25;41.00;;;;;6.54;68.57;100937.72;5098439;27;46055;-54
2022/12/08 04:06:20;;;;;;;;;51.75;42.00;;;;;6.57;68.43;100939.28;5098539;27;45333;-53
2022/12/08 04:08:47;;;;;;;;;53.00;40.25;;;;;6.57;68.33;100940.13;5098531;27;45268;-54
2022/12/08 04:11:12;;;;;;;;;54.25;41.00;;;;;6.56;68.61;100934.94;5098658;27;45309;-49
2022/12/08 04:13:39;;;;;;;;;60.25;41.75;;;;;6.59;68.99;100935.56;5098145;27;45430;-54
2022/12/08 04:16:05;;;;;;;;;52.00;40.75;;;;;6.57;68.43;100924.25;5097981;27;45234;-52
2022/12/08 04:18:31;;;;;;;;;56.75;41.75;;;;;6.62;68.48;100931.88;5098694;27;45450;-54
2022/12/08 04:20:56;;;;;;;;;46.75;38.25;;;;;6.63;68.06;100934.38;5098393;27;45367;-53
2022/12/08 04:23:22;;;;;;;;;51.00;39.25;;;;;6.64;68.02;100933.41;5097965;27;46191;-52
2022/12/08 04:25:49;;;;;;;;;57.75;42.75;;;;;6.62;68.34;100924.78;5098080;27;45321;-53
2022/12/08 04:28:15;;;;;;;;;57.50;40.75;;;;;6.64;67.48;100929.94;5098155;27;45377;-53
2022/12/08 04:30:40;;;;;;;;;50.00;36.50;;;;;6.64;68.21;100929.94;5098333;27;45878;-53
2022/12/08 04:33:06;;;;;;;;;46.75;39.00;;;;;6.63;68.14;100925.59;5096490;27;46314;-54
2022/12/08 04:35:31;;;;;;;;;49.75;37.25;;;;;6.63;68.45;100923.81;5098032;27;45415;-52
2022/12/08 04:37:56;;;;;;;;;46.50;39.00;;;;;6.61;68.53;100920.41;5097990;27;45266;-52
2022/12/08 04:40:22;;;;;;;;;52.25;40.00;;;;;6.64;68.22;100920.19;5098056;27;45260;-51
2022/12/08 04:42:47;;;;;;;;;47.50;40.00;;;;;6.65;67.92;100918.38;5097968;27;45345;-53
2022/12/08 04:45:14;;;;;;;;;44.00;35.25;;;;;6.64;67.86;100909.63;5096215;27;45322;-53
2022/12/08 04:47:39;;;;;;;;;46.00;36.25;;;;;6.64;67.96;100911.44;5097691;27;45277;-52
2022/12/08 04:50:05;;;;;;;;;50.50;39.50;;;;;6.64;67.60;100904.34;5098149;27;45491;-51
2022/12/08 04:52:31;;;;;;;;;52.25;37.25;;;;;6.61;67.21;100901.91;5097704;27;46209;-51
2022/12/08 04:54:56;;;;;;;;;47.25;38.25;;;;;6.64;67.71;100903.50;5097481;27;45482;-52
2022/12/08 04:57:21;;;;;;;;;52.00;34.00;;;;;6.63;67.93;100897.38;5097862;27;45434;-53
2022/12/08 04:59:46;;;;;;;;;45.75;32.50;;;;;6.60;67.48;100894.94;5097906;27;45404;-53
2022/12/08 05:02:12;;;;;;;;;49.25;35.75;;;;;6.57;67.90;100886.41;5097629;27;46906;-54
2022/12/08 05:04:37;;;;;;;;;49.00;37.75;;;;;6.60;67.51;100891.47;5097565;27;45246;-54
2022/12/08 05:07:03;;;;;;;;;41.75;30.25;;;;;6.58;68.37;100888.97;5097623;27;45434;-53
2022/12/08 05:09:28;;;;;;;;;47.75;39.25;;;;;6.57;68.28;100889.91;5097595;27;45478;-52
2022/12/08 05:11:53;;;;;;;;;46.75;35.25;;;;;6.46;68.08;100882.81;5097228;27;47257;-53
2022/12/08 05:14:19;;;;;;;;;42.50;35.75;;;;;6.44;68.22;100889.16;5097197;27;45336;-54
2022/12/08 05:16:45;;;;;;;;;59.25;41.75;;;;;6.42;68.77;100884.00;5097292;27;45345;-53
2022/12/08 05:19:11;;;;;;;;;51.75;42.25;;;;;6.33;68.50;100879.41;5097526;27;45337;-53
2022/12/08 05:21:36;;;;;;;;;58.25;39.50;;;;;6.28;68.86;100885.97;5112865;27;46181;-53
2022/12/08 05:24:02;;;;;;;;;45.75;32.75;;;;;6.25;68.98;100879.97;5097082;27;45392;-53
2022/12/08 05:26:27;;;;;;;;;44.50;36.50;;;;;6.21;69.01;100880.34;5097943;27;45348;-53
2022/12/08 05:28:53;;;;;;;;;51.50;35.75;;;;;6.19;69.55;100883.09;5101105;27;45556;-53
2022/12/08 05:31:18;;;;;;;;;54.25;43.00;;;;;6.12;69.67;100881.03;5100790;27;45506;-53
2022/12/08 05:33:44;;;;;;;;;44.75;36.75;;;;;6.14;69.70;100879.94;5100618;27;45259;-55
2022/12/08 05:36:12;;;;;;;;;42.50;38.00;;;;;6.10;69.59;100873.19;5100991;27;45310;-55
2022/12/08 05:38:38;;;;;;;;;44.50;36.50;;;;;6.11;69.29;100880.19;5101081;27;45226;-53
2022/12/08 05:41:08;;;;;;;;;58.75;38.50;;;;;6.08;69.29;100876.94;5100599;27;46255;-55
2022/12/08 05:43:34;;;;;;;;;44.50;33.25;;;;;6.03;69.31;100865.88;5100717;27;45378;-54
2022/12/08 05:45:59;;;;;;;;;41.00;34.25;;;;;6.08;69.32;100884.84;5100522;27;45379;-54
2022/12/08 05:48:25;;;;;;;;;39.50;33.75;;;;;6.07;69.80;100881.38;5099367;27;45546;-54
2022/12/08 05:50:51;;;;;;;;;53.50;37.50;;;;;6.05;69.38;100887.72;5100661;27;45535;-57
2022/12/08 05:53:18;;;;;;;;;43.25;30.75;;;;;6.02;69.78;100886.13;5100531;27;45300;-53
2022/12/08 05:55:44;;;;;;;;;53.50;36.50;;;;;5.94;69.39;100872.66;5100463;27;45406;-50
2022/12/08 05:58:15;;;;;;;;;47.75;40.50;;;;;5.96;69.86;100884.78;5099455;27;45430;-51
2022/12/08 06:00:41;;;;;;;;;42.75;36.25;;;;;5.97;69.70;100888.28;5100350;27;45844;-53
2022/12/08 06:03:07;;;;;;;;;42.25;34.00;;;;;5.92;69.87;100869.28;5100358;27;45314;-53
2022/12/08 06:05:33;;;;;;;;;50.50;36.00;;;;;5.97;69.57;100883.84;5100532;27;45321;-53
2022/12/08 06:07:59;;;;;;;;;49.00;33.25;;;;;5.92;70.12;100878.06;5100729;27;45341;-54
2022/12/08 06:10:24;;;;;;;;;48.75;36.25;;;;;5.94;69.71;100876.16;5100244;27;46413;-53
2022/12/08 06:12:49;;;;;;;;;50.50;34.50;;;;;5.93;69.43;100876.25;5100277;27;45157;-54
2022/12/08 06:15:15;;;;;;;;;46.50;37.50;;;;;5.96;69.88;100876.03;5100027;27;45172;-52
2022/12/08 06:17:40;;;;;;;;;40.50;30.75;;;;;5.98;69.72;100872.34;5100440;27;45417;-52
2022/12/08 06:20:06;;;;;;;;;43.00;35.00;;;;;5.97;69.64;100857.44;5099982;27;45299;-53
2022/12/08 06:22:31;;;;;;;;;50.50;39.50;;;;;6.00;69.55;100866.94;5099793;27;45425;-51
2022/12/08 06:24:57;;;;;;;;;46.25;34.00;;;;;6.02;70.05;100869.44;5100186;27;45248;-54
2022/12/08 06:27:22;;;;;;;;;41.00;30.75;;;;;6.05;69.73;100867.41;5100598;27;45435;-52
2022/12/08 06:29:47;;;;;;;;;36.00;25.75;;;;;6.00;69.75;100864.28;5100175;27;45378;-53
2022/12/08 06:32:13;;;;;;;;;56.00;35.50;;;;;5.91;69.51;100863.16;5099734;27;45349;-54
2022/12/08 06:34:38;;;;;;;;;50.00;36.00;;;;;5.85;69.77;100857.47;5099841;27;45834;-53
2022/12/08 06:37:03;;;;;;;;;53.50;38.25;;;;;5.84;69.74;100863.72;5100297;27;45303;-53
2022/12/08 06:39:29;;;;;;;;;49.75;36.25;;;;;5.84;70.07;100867.19;5098396;27;46286;-53
2022/12/08 06:44:38;;;;;;;;;37.00;30.75;;;;;5.66;70.23;100836.88;5099866;27;45321;-52
2022/12/08 06:47:03;;;;;;;;;39.50;31.00;;;;;5.72;70.40;100849.59;5099724;27;45303;-52
2022/12/08 06:49:29;;;;;;;;;44.00;39.50;;;;;5.70;70.21;100854.16;5099356;27;46089;-53
2022/12/08 06:51:54;;;;;;;;;39.50;31.00;;;;;5.69;70.59;100855.13;5099596;27;45376;-53
2022/12/08 06:54:19;;;;;;;;;37.50;26.00;;;;;5.69;70.75;100850.69;5099700;27;45324;-53
2022/12/08 06:56:45;;;;;;;;;50.00;36.00;;;;;5.70;71.07;100854.16;5099829;27;45290;-52
2022/12/08 06:59:10;;;;;;;;;46.00;35.50;;;;;5.73;71.07;100852.16;5099459;27;46909;-51
2022/12/08 07:01:35;;;;;;;;;38.50;29.50;;;;;5.74;70.54;100856.47;5099328;27;45328;-53
2022/12/08 07:04:01;;;;;;;;;38.75;30.75;;;;;5.75;70.58;100857.31;5099575;27;45407;-52
2022/12/08 07:06:26;;;;;;;;;40.75;34.75;;;;;5.76;70.34;100854.53;5099853;27;45322;-51
2022/12/08 07:08:51;;;;;;;;;44.75;35.50;;;;;5.76;70.74;100857.19;5099309;27;45863;-53
2022/12/08 07:11:17;;;;;;;;;43.25;36.50;;;;;5.79;70.16;100858.78;5099377;27;45483;-54
2022/12/08 07:13:42;;;;;;;;;42.00;28.25;;;;;5.80;70.10;100854.31;5099490;27;45294;-53
2022/12/08 07:16:11;;;;;;;;;47.25;37.00;;;;;5.81;70.12;100854.19;5099427;27;45574;-55
2022/12/08 07:18:38;;;;;;;;;47.00;33.75;;;;;5.82;70.04;100855.06;5099344;27;46175;-53
2022/12/08 07:21:06;;;;;;;;;50.75;32.00;;;;;5.80;69.95;100852.53;5099101;27;45467;-51
2022/12/08 07:23:32;;;;;;;;;43.50;34.50;;;;;5.79;69.90;100853.50;5099209;27;45375;-51
2022/12/08 07:26:02;;;;;;;;;42.75;31.75;;;;;5.78;69.70;100851.81;5099343;27;45533;-53
2022/12/08 07:28:32;;;;;;;;;35.00;30.25;;;;;5.75;69.79;100855.50;5099008;27;47209;-53
2022/12/08 07:30:58;;;;;;;;;43.00;29.00;;;;;5.80;70.07;100856.97;5099052;27;45223;-53
2022/12/08 07:33:23;;;;;;;;;32.50;29.25;;;;;5.79;69.96;100853.50;5099067;27;45302;-52
2022/12/08 07:36:01;;;;;;;;;37.75;28.25;;;;;5.71;70.30;100845.28;5099162;27;45300;-54
2022/12/08 07:38:27;;;;;;;;;39.50;29.75;;;;;5.79;69.87;100864.03;5098892;27;45392;-53
2022/12/08 07:40:53;;;;;;;;;40.00;30.00;;;;;5.79;70.23;100850.00;5098827;27;45538;-54
2022/12/08 07:43:19;;;;;;;;;39.00;32.50;;;;;5.79;70.10;100865.84;5098949;27;45366;-51
2022/12/08 07:45:44;;;;;;;;;37.50;29.75;;;;;5.76;69.94;100859.00;5099226;27;45317;-52
2022/12/08 07:48:10;;;;;;;;;38.50;25.75;;;;;5.78;69.33;100853.63;5098284;27;46483;-49
2022/12/08 07:50:36;;;;;;;;;29.25;24.75;;;;;5.73;69.41;100846.88;5097281;27;45528;-53
2022/12/08 07:53:01;;;;;;;;;37.00;28.50;;;;;5.77;69.31;100858.03;5097141;27;45401;-53
2022/12/08 07:55:27;;;;;;;;;36.00;28.25;;;;;5.74;68.57;100856.47;5095836;27;45420;-50
2022/12/08 07:57:53;;;;;;;;;39.75;27.75;;;;;5.73;69.05;100853.94;5095410;27;46309;-52
2022/12/08 08:00:19;;;;;;;;;44.25;25.75;;;;;5.70;69.04;100849.72;5095524;27;45453;-52
2022/12/08 08:02:44;;;;;;;;;39.25;29.25;;;;;5.74;69.18;100853.84;5095847;27;45512;-51
2022/12/08 08:05:13;;;;;;;;;39.75;30.00;;;;;5.72;69.21;100847.81;5096171;27;45392;-52
2022/12/08 08:07:44;;;;;;;;;39.75;29.25;;;;;5.72;69.06;100837.25;5095590;27;45507;-54
2022/12/08 08:10:10;;;;;;;;;37.00;28.00;;;;;5.79;68.51;100850.00;5095647;27;45522;-52
2022/12/08 08:12:37;;;;;;;;;33.50;25.25;;;;;5.74;68.49;100838.00;5095613;27;45779;-50
2022/12/08 08:15:06;;;;;;;;;35.00;22.75;;;;;5.81;68.18;100838.38;5095640;27;45423;-53
2022/12/08 08:17:32;;;;;;;;;31.50;25.50;;;;;5.83;68.66;100838.28;5095257;27;47198;-54
2022/12/08 08:19:57;;;;;;;;;39.50;26.50;;;;;5.84;68.48;100834.66;5095101;27;45500;-55
2022/12/08 08:22:24;;;;;;;;;40.00;26.50;;;;;5.76;68.89;100817.59;5095737;27;45611;-52
2022/12/08 08:24:49;;;;;;;;;33.75;27.75;;;;;5.84;67.93;100830.22;5096022;27;45459;-54
2022/12/08 08:27:15;;;;;;;;;35.00;26.00;;;;;5.88;68.10;100839.59;5094923;27;46880;-52
2022/12/08 08:29:40;;;;;;;;;38.00;27.50;;;;;5.85;68.04;100834.53;5095223;27;45287;-54
2022/12/08 08:32:05;;;;;;;;;38.50;30.75;;;;;5.90;67.78;100839.47;5095374;27;45901;-52
2022/12/08 08:34:31;;;;;;;;;34.50;28.75;;;;;5.88;68.04;100841.41;5095616;27;45460;-54
2022/12/08 08:36:56;;;;;;;;;32.50;27.50;;;;;5.86;67.80;100836.25;5095522;27;45544;-52
2022/12/08 08:39:21;;;;;;;;;36.25;28.50;;;;;5.86;67.93;100845.97;5095052;27;45324;-54
2022/12/08 08:41:47;;;;;;;;;30.25;22.25;;;;;5.85;67.41;100831.06;5095515;27;45389;-54
2022/12/08 08:44:13;;;;;;;;;25.00;17.50;;;;;5.83;67.53;100822.44;5095280;27;45524;-55
2022/12/08 08:46:39;;;;;;;;;20.75;19.50;;;;;5.82;67.18;100820.75;5095092;27;46281;-54
2022/12/08 08:49:04;;;;;;;;;36.75;22.25;;;;;5.82;67.35;100820.75;5093701;27;45476;-55
2022/12/08 08:51:30;;;;;;;;;26.25;21.00;;;;;5.83;66.93;100819.78;5094983;27;45505;-53
2022/12/08 08:53:56;;;;;;;;;29.00;24.75;;;;;5.72;67.00;100800.28;5095265;27;45406;-54
2022/12/08 08:56:21;;;;;;;;;28.50;22.00;;;;;5.84;67.11;100821.47;5095122;27;46190;-53
2022/12/08 08:58:48;;;;;;;;;22.25;17.00;;;;;5.82;66.71;100818.94;5093652;27;45556;-53
2022/12/08 09:01:16;;;;;;;;;21.50;18.50;;;;;5.86;66.76;100819.56;5093779;27;45445;-52
2022/12/08 09:03:42;;;;;;;;;36.00;25.00;;;;;5.85;66.95;100825.78;5094837;27;45377;-53
2022/12/08 09:06:07;;;;;;;;;27.75;17.25;;;;;5.83;67.13;100822.44;5095067;27;45937;-52
2022/12/08 09:08:32;;;;;;;;;27.50;23.25;;;;;5.86;66.65;100823.06;5094857;27;45369;-53
2022/12/08 09:10:58;;;;;;;;;20.25;19.75;;;;;5.88;66.59;100815.84;5094559;27;45490;-54
2022/12/08 09:13:23;;;;;;;;;23.75;19.75;;;;;5.90;66.82;100821.88;5094926;27;45465;-55
2022/12/08 09:15:49;;;;;;;;;26.00;19.25;;;;;5.87;67.01;100816.81;5094408;27;46067;-52
2022/12/08 09:18:14;;;;;;;;;25.00;22.75;;;;;5.88;66.51;100822.94;5094781;27;45459;-55
2022/12/08 09:20:39;;;;;;;;;26.00;21.00;;;;;5.88;66.55;100826.41;5094939;27;45485;-55
2022/12/08 09:23:05;;;;;;;;;24.00;22.50;;;;;5.87;66.51;100823.88;5094722;27;45458;-53
2022/12/08 09:25:30;;;;;;;;;31.75;22.75;;;;;5.88;66.50;100820.28;5094423;27;46836;-54
2022/12/08 09:27:55;;;;;;;;;32.00;22.00;;;;;5.85;66.43;100820.50;5094455;27;45445;-50
2022/12/08 09:30:21;;;;;;;;;29.25;22.00;;;;;5.82;66.14;100813.66;5093825;27;45650;-52
2022/12/08 09:32:47;;;;;;;;;29.75;21.75;;;;;5.78;66.82;100806.09;5094729;27;45550;-54
2022/12/08 09:35:13;;;;;;;;;27.50;21.25;;;;;5.81;66.58;100814.59;5094126;27;46523;-52
2022/12/08 09:37:38;;;;;;;;;31.75;22.50;;;;;5.78;66.68;100812.22;5094268;27;45362;-54
2022/12/08 09:40:05;;;;;;;;;22.25;21.50;;;;;5.76;65.78;100814.13;5094659;27;45440;-53
2022/12/08 09:42:58;;;;;;;;;25.75;20.25;;;;;5.77;66.90;100815.78;5094841;27;45538;-56
2022/12/08 09:45:29;;;;;;;;;28.25;19.50;;;;;5.69;66.96;100795.28;5094075;27;45608;-55
2022/12/08 09:47:54;;;;;;;;;27.25;22.00;;;;;5.84;66.62;100811.75;5091964;27;45409;-54
2022/12/08 09:50:34;;;;;;;;;30.25;24.25;;;;;5.87;66.73;100816.81;5094401;27;45764;-53
2022/12/08 09:53:11;;;;;;;;;43.00;24.75;;;;;5.89;66.38;100806.97;5094468;27;45511;-55
2022/12/08 09:55:49;;;;;;;;;30.75;27.75;;;;;5.83;66.97;100794.22;5094150;27;45471;-53
2022/12/08 09:58:38;;;;;;;;;32.25;24.25;;;;;5.90;66.53;100798.09;5093904;27;45598;-54
2022/12/08 10:01:04;;;;;;;;;32.75;30.25;;;;;5.88;66.38;100796.53;5094234;27;45478;-55
2022/12/08 10:03:30;;;;;;;;;46.75;33.25;;;;;5.90;66.78;100792.81;5094327;27;45926;-53
2022/12/08 10:06:29;;;;;;;;;35.50;30.75;;;;;5.82;66.46;100784.63;5094176;27;45326;-52
2022/12/08 10:09:18;;;;;;;;;35.50;29.00;;;;;5.83;66.73;100782.84;5093781;27;45483;-52
2022/12/08 10:11:58;;;;;;;;;35.75;33.50;;;;;5.82;66.88;100778.53;5094229;27;45410;-56
2022/12/08 10:14:34;;;;;;;;;41.75;33.25;;;;;5.81;66.97;100782.09;5097765;27;45551;-54
2022/12/08 10:17:13;;;;;;;;;42.50;34.50;;;;;5.80;66.77;100769.84;5097600;27;46644;-51
2022/12/08 10:19:41;;;;;;;;;34.75;32.25;;;;;5.81;66.71;100768.88;5097422;27;45522;-56
2022/12/08 10:22:23;;;;;;;;;40.75;30.25;;;;;5.85;66.45;100773.81;5097227;27;45546;-54
2022/12/08 10:24:54;;;;;;;;;46.25;35.00;;;;;5.87;67.12;100766.66;5097559;27;45480;-54
2022/12/08 10:27:20;;;;;;;;;42.25;35.50;;;;;5.83;66.96;100752.00;5097397;27;45449;-53
2022/12/08 10:29:45;;;;;;;;;44.00;35.25;;;;;5.81;66.74;100761.81;5097328;27;45466;-55
2022/12/08 10:32:20;;;;;;;;;39.00;29.50;;;;;5.78;66.75;100756.78;5097583;27;45509;-55
2022/12/08 10:35:10;;;;;;;;;39.00;36.00;;;;;5.81;66.68;100755.69;5097386;27;45329;-55
2022/12/08 10:37:36;;;;;;;;;42.50;35.00;;;;;5.78;67.50;100740.94;5094627;27;47993;-55
2022/12/08 10:40:08;;;;;;;;;39.75;32.00;;;;;5.82;67.31;100744.19;5097320;27;45417;-55
2022/12/08 10:42:39;;;;;;;;;47.00;37.25;;;;;5.80;66.61;100743.47;5097318;27;45503;-50
2022/12/08 10:45:25;;;;;;;;;40.25;33.75;;;;;5.80;67.22;100735.53;5097339;27;45492;-54
2022/12/08 10:47:58;;;;;;;;;44.75;34.50;;;;;5.82;66.62;100734.47;5096844;27;46188;-53
2022/12/08 10:50:40;;;;;;;;;46.75;37.50;;;;;5.85;67.04;100736.88;5097080;27;45353;-54
2022/12/08 10:53:08;;;;;;;;;44.50;37.00;;;;;5.83;66.86;100727.41;5097015;27;45367;-53
2022/12/08 10:55:47;;;;;;;;;44.25;36.75;;;;;5.81;66.49;100726.66;5097266;27;45348;-50
2022/12/08 10:58:29;;;;;;;;;39.50;34.50;;;;;5.86;66.75;100728.00;5096837;27;46550;-54
2022/12/08 11:01:21;;;;;;;;;35.50;27.75;;;;;5.81;66.68;100708.19;5097204;27;45401;-56
2022/12/08 11:03:46;;;;;;;;;44.50;34.50;;;;;5.94;66.68;100722.16;5096635;27;45371;-54
2022/12/08 11:06:30;;;;;;;;;36.50;31.75;;;;;5.97;66.72;100719.28;5097068;27;45411;-53
2022/12/08 11:08:58;;;;;;;;;49.75;40.25;;;;;6.00;66.03;100719.06;5095471;27;46175;-53
2022/12/08 11:11:57;;;;;;;;;50.50;30.75;;;;;6.03;66.64;100715.34;5096568;27;45845;-52
2022/12/08 11:14:28;;;;;;;;;51.00;32.25;;;;;6.05;66.17;100708.13;5053629;28;45550;-52
2022/12/08 11:17:10;;;;;;;;;46.00;39.75;;;;;6.02;66.49;100706.56;5053509;28;45575;-53
2022/12/08 11:19:38;;;;;;;;;44.00;32.75;;;;;6.08;66.22;100705.28;5052960;28;46233;-56
2022/12/08 11:22:29;;;;;;;;;51.75;40.50;;;;;6.09;66.45;100701.66;5053271;28;45558;-55
2022/12/08 11:25:11;;;;;;;;;49.00;36.25;;;;;6.12;66.09;100696.16;5052724;28;45433;-56
2022/12/08 11:27:40;;;;;;;;;46.25;38.25;;;;;6.15;66.31;100690.59;5053777;28;45457;-54
2022/12/08 11:30:34;;;;;;;;;36.00;33.50;;;;;6.16;65.81;100692.31;5052779;28;46014;-53
2022/12/08 11:33:26;;;;;;;;;43.00;32.50;;;;;6.17;65.29;100693.97;5053052;28;45541;-51
2022/12/08 11:36:07;;;;;;;;;37.50;32.75;;;;;6.13;65.46;100703.94;5053549;28;45525;-50